createdAt,value
2022-12-28T00:02:17.319Z,7.15
2022-12-28T00:04:44.109Z,7.40
2022-12-28T00:07:10.812Z,7.68
2022-12-28T00:09:37.823Z,7.40
2022-12-28T00:12:05.125Z,6.50
2022-12-28T00:14:31.850Z,6.60
2022-12-28T00:16:58.708Z,7.45
2022-12-28T00:19:26.901Z,7.63
2022-12-28T00:21:54.030Z,6.80
2022-12-28T00:24:22.871Z,7.07
2022-12-28T00:26:50.309Z,7.10
2022-12-28T00:29:17.386Z,6.78
2022-12-28T00:31:44.779Z,6.70
2022-12-28T00:34:12.726Z,7.45
2022-12-28T00:37:11.203Z,7.15
2022-12-28T00:39:27.641Z,6.15
2022-12-28T00:41:54.352Z,7.22
2022-12-28T00:44:21.053Z,7.85
2022-12-28T00:46:47.821Z,7.07
2022-12-28T00:49:14.505Z,7.75
2022-12-28T00:51:42.631Z,6.70
2022-12-28T00:54:09.551Z,7.53
2022-12-28T00:56:36.258Z,6.90
2022-12-28T00:59:02.982Z,7.13
2022-12-28T01:01:29.873Z,6.07
2022-12-28T01:03:57.539Z,6.80
2022-12-28T01:06:24.630Z,7.20
2022-12-28T01:08:52.892Z,7.55
2022-12-28T01:11:21.157Z,6.82
2022-12-28T01:13:48.815Z,7.90
2022-12-28T01:16:17.191Z,7.15
2022-12-28T01:18:44.632Z,7.97
2022-12-28T01:21:12.972Z,7.18
2022-12-28T01:23:40.060Z,7.03
2022-12-28T01:26:08.326Z,6.80
2022-12-28T01:28:35.664Z,7.60
2022-12-28T01:31:06.500Z,6.90
2022-12-28T01:33:33.264Z,7.72
2022-12-28T01:36:06.250Z,7.68
2022-12-28T01:38:33.021Z,7.85
2022-12-28T01:41:00.161Z,7.60
2022-12-28T01:43:40.031Z,7.00
2022-12-28T01:46:09.258Z,6.68
2022-12-28T01:48:41.387Z,7.03
2022-12-28T01:51:08.339Z,7.45
2022-12-28T01:53:35.122Z,6.55
2022-12-28T01:56:02.014Z,5.88
2022-12-28T01:58:32.299Z,6.18
2022-12-28T02:01:00.664Z,6.32
2022-12-28T02:03:30.882Z,6.32
2022-12-28T02:06:00.464Z,5.53
2022-12-28T02:08:33.252Z,5.90
2022-12-28T02:11:00.220Z,6.38
2022-12-28T02:13:27.444Z,5.93
2022-12-28T02:15:54.172Z,5.10
2022-12-28T02:18:23.579Z,5.40
2022-12-28T02:21:15.614Z,6.32
2022-12-28T02:24:01.649Z,6.00
2022-12-28T02:26:44.962Z,6.07
2022-12-28T02:29:59.116Z,5.93
2022-12-28T02:32:45.274Z,5.40
2022-12-28T02:35:17.480Z,6.13
2022-12-28T02:37:47.412Z,5.20
2022-12-28T02:40:18.669Z,6.20
2022-12-28T02:42:46.323Z,5.75
2022-12-28T02:48:39.383Z,5.82
2022-12-28T02:51:21.264Z,4.95
2022-12-28T02:54:15.965Z,5.53
2022-12-28T02:59:36.708Z,5.30
2022-12-28T03:02:44.966Z,5.38
2022-12-28T03:05:24.363Z,4.93
2022-12-28T03:07:59.733Z,5.07
2022-12-28T03:10:30.823Z,5.65
2022-12-28T03:13:01.494Z,5.68
2022-12-28T03:15:33.862Z,4.55
2022-12-28T03:18:06.792Z,4.15
2022-12-28T03:20:34.822Z,4.75
2022-12-28T03:23:05.111Z,4.43
2022-12-28T03:25:37.353Z,4.15
2022-12-28T03:28:07.367Z,3.90
2022-12-28T03:30:38.572Z,4.20
2022-12-28T03:33:07.779Z,4.32
2022-12-28T03:35:44.872Z,4.00
2022-12-28T03:38:15.077Z,3.30
2022-12-28T03:40:48.967Z,4.45
2022-12-28T03:43:20.557Z,3.75
2022-12-28T03:45:52.665Z,3.47
2022-12-28T03:48:19.716Z,4.13
2022-12-28T03:50:49.415Z,3.78
2022-12-28T03:53:18.971Z,3.88
2022-12-28T03:55:45.819Z,3.35
2022-12-28T03:58:12.530Z,3.58
2022-12-28T04:00:39.224Z,3.80
2022-12-28T04:03:06.059Z,3.22
2022-12-28T04:05:32.795Z,3.58
2022-12-28T04:08:00.816Z,3.38
2022-12-28T04:10:27.625Z,3.80
2022-12-28T04:12:55.254Z,3.00
2022-12-28T04:15:22.131Z,3.47
2022-12-28T04:17:48.997Z,3.70
2022-12-28T04:20:15.948Z,3.45
2022-12-28T04:22:42.655Z,3.55
2022-12-28T04:25:10.819Z,2.70
2022-12-28T04:27:37.557Z,2.83
2022-12-28T04:30:05.213Z,2.50
2022-12-28T04:32:31.956Z,2.63
2022-12-28T04:34:58.691Z,3.20
2022-12-28T04:37:25.430Z,4.07
2022-12-28T04:39:55.791Z,3.80
2022-12-28T04:42:25.739Z,3.35
2022-12-28T04:44:52.487Z,3.00
2022-12-28T04:47:19.237Z,4.43
2022-12-28T04:49:46.039Z,3.80
2022-12-28T04:52:12.994Z,3.05
2022-12-28T04:54:39.775Z,2.88
2022-12-28T04:57:06.501Z,2.83
2022-12-28T04:59:34.567Z,2.38
2022-12-28T05:02:01.564Z,3.00
2022-12-28T05:04:28.382Z,2.83
2022-12-28T05:06:55.112Z,2.78
2022-12-28T05:09:21.823Z,2.67
2022-12-28T05:11:48.992Z,2.78
2022-12-28T05:14:15.908Z,2.10
2022-12-28T05:16:43.971Z,2.45
2022-12-28T05:19:10.710Z,2.28
2022-12-28T05:21:37.456Z,2.25
2022-12-28T05:24:04.600Z,2.55
2022-12-28T05:26:31.450Z,3.40
2022-12-28T05:28:58.816Z,3.00
2022-12-28T05:31:26.329Z,3.30
2022-12-28T05:33:54.766Z,3.30
2022-12-28T05:36:23.102Z,2.35
2022-12-28T05:38:50.349Z,2.35
2022-12-28T05:41:18.881Z,1.80
2022-12-28T05:43:46.193Z,1.88
2022-12-28T05:46:15.197Z,2.72
2022-12-28T05:48:42.753Z,2.97
2022-12-28T05:51:14.142Z,2.67
2022-12-28T05:53:42.185Z,2.38
2022-12-28T05:56:14.340Z,2.40
2022-12-28T05:58:42.159Z,2.50
2022-12-28T06:01:12.101Z,2.33
2022-12-28T06:03:39.580Z,2.20
2022-12-28T06:06:08.440Z,1.90
2022-12-28T06:08:37.638Z,1.70
2022-12-28T06:11:06.571Z,1.88
2022-12-28T06:13:34.372Z,1.50
2022-12-28T06:16:05.758Z,1.98
2022-12-28T06:18:32.920Z,1.63
2022-12-28T06:21:02.824Z,1.98
2022-12-28T06:23:29.808Z,1.63
2022-12-28T06:26:00.105Z,1.92
2022-12-28T06:28:27.042Z,1.40
2022-12-28T06:31:00.712Z,1.90
2022-12-28T06:33:27.399Z,1.80
2022-12-28T06:35:54.156Z,1.63
2022-12-28T06:38:20.872Z,2.00
2022-12-28T06:41:12.171Z,1.70
2022-12-28T06:43:36.915Z,1.42
2022-12-28T06:46:04.264Z,1.30
2022-12-28T06:48:32.149Z,1.50
2022-12-28T06:51:00.109Z,1.70
2022-12-28T06:53:29.311Z,2.92
2022-12-28T06:55:57.360Z,1.67
2022-12-28T06:58:24.958Z,1.85
2022-12-28T07:00:56.872Z,1.77
2022-12-28T07:03:24.547Z,1.42
2022-12-28T07:05:51.298Z,1.70
2022-12-28T07:08:18.728Z,1.55
2022-12-28T07:10:45.436Z,1.88
2022-12-28T07:13:12.176Z,2.10
2022-12-28T07:15:38.875Z,3.35
2022-12-28T07:18:06.947Z,4.15
2022-12-28T07:20:40.096Z,4.38
2022-12-28T07:23:07.199Z,4.07
2022-12-28T07:25:35.241Z,4.03
2022-12-28T07:28:01.943Z,3.10
2022-12-28T07:30:28.775Z,3.50
2022-12-28T07:32:55.627Z,2.00
2022-12-28T07:35:23.694Z,1.60
2022-12-28T07:37:50.442Z,1.52
2022-12-28T07:40:17.168Z,1.95
2022-12-28T07:42:43.876Z,1.83
2022-12-28T07:45:11.092Z,1.77
2022-12-28T07:47:37.910Z,1.80
2022-12-28T07:50:05.056Z,1.63
2022-12-28T07:52:35.221Z,1.35
2022-12-28T07:55:01.985Z,1.25
2022-12-28T07:57:28.712Z,1.35
2022-12-28T07:59:55.428Z,1.25
2022-12-28T08:02:22.316Z,1.10
2022-12-28T08:04:52.219Z,1.40
2022-12-28T08:07:19.260Z,1.15
2022-12-28T08:09:47.336Z,1.40
2022-12-28T08:12:14.058Z,1.10
2022-12-28T08:14:40.759Z,1.98
2022-12-28T08:17:07.551Z,1.67
2022-12-28T08:19:34.259Z,2.53
2022-12-28T08:22:01.003Z,2.45
2022-12-28T08:24:27.700Z,1.55
2022-12-28T08:26:55.776Z,1.73
2022-12-28T08:29:22.932Z,1.95
2022-12-28T08:31:49.788Z,1.33
2022-12-28T08:34:18.798Z,1.80
2022-12-28T08:36:46.193Z,1.25
2022-12-28T08:39:12.968Z,1.55
2022-12-28T08:41:39.693Z,1.60
2022-12-28T08:44:07.873Z,1.33
2022-12-28T08:46:36.323Z,1.40
2022-12-28T08:49:04.109Z,1.20
2022-12-28T08:51:32.697Z,0.88
2022-12-28T08:54:00.961Z,1.23
2022-12-28T08:56:29.408Z,1.35
2022-12-28T08:58:57.581Z,1.55
2022-12-28T09:01:27.893Z,1.23
2022-12-28T09:03:56.673Z,1.17
2022-12-28T09:06:25.768Z,1.33
2022-12-28T09:09:05.354Z,1.25
2022-12-28T09:11:33.499Z,1.00
2022-12-28T09:14:00.983Z,0.90
2022-12-28T09:16:29.425Z,1.17
2022-12-28T09:18:58.251Z,1.20
2022-12-28T09:21:27.801Z,0.73
2022-12-28T09:23:54.687Z,1.05
2022-12-28T09:26:23.276Z,1.02
2022-12-28T09:28:52.009Z,1.23
2022-12-28T09:31:20.608Z,0.90
2022-12-28T09:34:24.727Z,0.98
2022-12-28T09:36:37.233Z,0.90
2022-12-28T09:39:05.620Z,0.95
2022-12-28T09:41:36.948Z,0.90
2022-12-28T09:44:17.395Z,0.77
2022-12-28T09:46:51.289Z,0.82
2022-12-28T09:49:23.399Z,0.80
2022-12-28T09:51:54.942Z,0.90
2022-12-28T09:54:21.736Z,0.82
2022-12-28T09:56:49.338Z,1.02
2022-12-28T09:59:19.158Z,0.70
2022-12-28T10:01:52.913Z,1.02
2022-12-28T10:04:21.139Z,1.10
2022-12-28T10:06:48.025Z,0.63
2022-12-28T10:09:21.871Z,0.90
2022-12-28T10:11:48.692Z,0.80
2022-12-28T10:14:20.025Z,1.58
2022-12-28T10:16:48.928Z,1.33
2022-12-28T10:19:19.078Z,0.90
2022-12-28T10:21:48.829Z,1.10
2022-12-28T10:24:32.368Z,0.82
2022-12-28T10:27:01.961Z,0.80
2022-12-28T10:29:32.182Z,1.00
2022-12-28T10:32:02.313Z,1.70
2022-12-28T10:34:34.426Z,0.80
2022-12-28T10:37:14.763Z,0.93
2022-12-28T10:39:49.207Z,0.70
2022-12-28T10:42:21.635Z,1.42
2022-12-28T10:44:49.660Z,0.90
2022-12-28T10:47:22.794Z,0.70
2022-12-28T10:50:10.534Z,0.60
2022-12-28T10:52:40.117Z,0.75
2022-12-28T10:55:27.284Z,0.57
2022-12-28T11:00:40.985Z,1.40
2022-12-28T11:03:17.891Z,0.63
2022-12-28T11:05:44.802Z,0.68
2022-12-28T11:08:13.786Z,0.73
2022-12-28T11:10:40.555Z,0.40
2022-12-28T11:13:21.788Z,0.50
2022-12-28T11:15:49.141Z,0.85
2022-12-28T11:18:17.744Z,0.40
2022-12-28T11:20:46.668Z,0.90
2022-12-28T11:23:19.229Z,0.43
2022-12-28T11:25:46.611Z,0.75
2022-12-28T11:28:15.331Z,0.43
2022-12-28T11:30:42.221Z,0.40
2022-12-28T11:33:28.162Z,0.73
2022-12-28T11:35:59.624Z,0.28
2022-12-28T11:38:42.236Z,0.52
2022-12-28T11:41:11.472Z,0.38
2022-12-28T11:43:52.637Z,0.35
2022-12-28T11:46:39.809Z,0.65
2022-12-28T11:49:25.223Z,0.40
2022-12-28T11:52:25.204Z,0.40
2022-12-28T11:54:55.581Z,0.30
2022-12-28T11:57:38.221Z,0.50
2022-12-28T12:00:47.318Z,0.50
2022-12-28T12:03:14.107Z,0.38
2022-12-28T12:05:53.181Z,0.25
2022-12-28T12:08:40.794Z,0.65
2022-12-28T12:11:31.485Z,0.57
2022-12-28T12:14:00.389Z,0.50
2022-12-28T12:16:33.614Z,0.50
2022-12-28T12:19:02.168Z,0.97
2022-12-28T12:21:32.433Z,0.40
2022-12-28T12:24:09.987Z,0.60
2022-12-28T12:26:44.143Z,0.40
2022-12-28T12:29:17.538Z,0.40
2022-12-28T12:31:48.454Z,0.30
2022-12-28T12:34:21.504Z,0.43
2022-12-28T12:37:17.116Z,0.55
2022-12-28T12:40:00.994Z,0.57
2022-12-28T12:42:40.543Z,0.38
2022-12-28T12:45:17.914Z,0.38
2022-12-28T12:48:11.506Z,0.38
2022-12-28T12:50:58.621Z,0.50
2022-12-28T12:53:48.495Z,0.60
2022-12-28T12:56:28.693Z,0.60
2022-12-28T12:59:27.733Z,0.50
2022-12-28T13:02:09.053Z,0.40
2022-12-28T13:04:36.332Z,0.57
2022-12-28T13:07:05.771Z,0.50
2022-12-28T13:09:34.545Z,0.50
2022-12-28T13:12:02.121Z,0.60
2022-12-28T13:14:30.470Z,0.85
2022-12-28T13:16:58.842Z,0.30
2022-12-28T13:19:27.858Z,0.60
2022-12-28T13:21:55.668Z,0.40
2022-12-28T13:24:24.769Z,0.45
2022-12-28T13:26:52.250Z,0.30
2022-12-28T13:29:21.273Z,0.50
2022-12-28T13:31:49.987Z,0.45
2022-12-28T13:34:19.154Z,0.30
2022-12-28T13:36:50.464Z,0.40
2022-12-28T13:39:18.669Z,0.40
2022-12-28T13:41:49.769Z,0.60
2022-12-28T13:44:29.188Z,0.40
2022-12-28T13:47:02.830Z,0.50
2022-12-28T13:49:34.112Z,0.47
2022-12-28T13:52:00.912Z,0.55
2022-12-28T13:54:27.884Z,0.50
2022-12-28T13:57:08.640Z,0.38
2022-12-28T13:59:44.307Z,0.22
2022-12-28T14:02:17.951Z,0.57
2022-12-28T14:04:53.778Z,0.38
2022-12-28T14:07:24.415Z,0.63
2022-12-28T14:09:52.243Z,1.05
2022-12-28T14:12:19.702Z,0.30
2022-12-28T14:14:47.564Z,0.50
2022-12-28T14:17:16.383Z,0.50
2022-12-28T14:19:44.672Z,0.57
2022-12-28T14:22:28.656Z,0.40
2022-12-28T14:25:03.648Z,0.43
2022-12-28T14:27:34.066Z,0.25
2022-12-28T14:30:03.756Z,0.50
2022-12-28T14:32:37.599Z,0.60
2022-12-28T14:35:16.573Z,0.63
2022-12-28T14:37:45.956Z,0.40
2022-12-28T14:40:23.691Z,0.50
2022-12-28T14:42:51.828Z,0.60
2022-12-28T14:45:23.522Z,0.43
2022-12-28T14:47:55.973Z,0.60
2022-12-28T14:50:25.643Z,0.55
2022-12-28T14:53:05.401Z,0.63
2022-12-28T14:55:34.179Z,0.47
2022-12-28T14:58:05.018Z,0.60
2022-12-28T15:00:33.919Z,0.50
2022-12-28T15:03:16.630Z,0.52
2022-12-28T15:05:45.832Z,0.60
2022-12-28T15:08:12.863Z,0.40
2022-12-28T15:10:45.758Z,0.80
2022-12-28T15:13:12.519Z,0.77
2022-12-28T15:15:40.454Z,0.68
2022-12-28T15:18:07.420Z,0.75
2022-12-28T15:20:38.003Z,1.00
2022-12-28T15:23:05.170Z,1.35
2022-12-28T15:25:34.480Z,1.00
2022-12-28T15:28:01.250Z,1.08
2022-12-28T15:30:29.375Z,1.05
2022-12-28T15:32:56.576Z,1.50
2022-12-28T15:35:23.513Z,1.30
2022-12-28T15:37:51.708Z,1.20
2022-12-28T15:40:18.525Z,1.20
2022-12-28T15:42:45.669Z,1.02
2022-12-28T15:45:12.806Z,1.42
2022-12-28T15:47:40.113Z,1.08
2022-12-28T15:50:07.408Z,1.10
2022-12-28T15:52:34.406Z,0.90
2022-12-28T15:55:02.540Z,1.27
2022-12-28T15:57:29.461Z,1.02
2022-12-28T15:59:56.411Z,1.00
2022-12-28T16:02:23.777Z,1.15
2022-12-28T16:04:50.622Z,1.63
2022-12-28T16:07:17.505Z,0.82
2022-12-28T16:09:44.279Z,0.70
2022-12-28T16:12:12.356Z,0.98
2022-12-28T16:14:39.530Z,0.90
2022-12-28T16:17:06.234Z,0.95
2022-12-28T16:19:33.019Z,1.10
2022-12-28T16:21:59.743Z,0.98
2022-12-28T16:24:26.446Z,0.80
2022-12-28T16:26:53.189Z,1.00
2022-12-28T16:29:21.340Z,0.93
2022-12-28T16:31:48.082Z,0.80
2022-12-28T16:34:17.188Z,0.88
2022-12-28T16:36:46.111Z,1.00
2022-12-28T16:39:14.736Z,0.95
2022-12-28T16:41:41.661Z,1.00
2022-12-28T16:44:13.478Z,1.38
2022-12-28T16:46:41.750Z,1.13
2022-12-28T16:49:09.107Z,1.20
2022-12-28T16:51:37.125Z,1.25
2022-12-28T16:54:04.166Z,0.98
2022-12-28T16:56:30.933Z,1.13
2022-12-28T16:58:58.730Z,0.77
2022-12-28T17:01:25.617Z,1.35
2022-12-28T17:03:55.335Z,0.95
2022-12-28T17:06:25.459Z,0.90
2022-12-28T17:08:52.189Z,0.90
2022-12-28T17:11:18.912Z,1.13
2022-12-28T17:13:45.614Z,1.13
2022-12-28T17:16:12.961Z,1.00
2022-12-28T17:18:39.710Z,1.52
2022-12-28T17:21:08.259Z,1.00
2022-12-28T17:23:34.976Z,0.80
2022-12-28T17:26:01.712Z,1.10
2022-12-28T17:28:28.509Z,1.17
2022-12-28T17:31:04.568Z,1.00
2022-12-28T17:33:37.137Z,1.50
2022-12-28T17:36:06.382Z,0.80
2022-12-28T17:38:34.483Z,0.93
2022-12-28T17:41:07.345Z,1.20
2022-12-28T17:43:34.064Z,1.17
2022-12-28T17:46:01.328Z,1.20
2022-12-28T17:48:28.136Z,1.00
2022-12-28T17:50:54.876Z,1.02
2022-12-28T17:53:21.567Z,0.98
2022-12-28T17:55:49.638Z,1.10
2022-12-28T17:58:16.322Z,1.50
2022-12-28T18:00:43.046Z,1.48
2022-12-28T18:03:09.846Z,1.25
2022-12-28T18:05:36.564Z,1.23
2022-12-28T18:08:03.456Z,1.25
2022-12-28T18:10:30.155Z,1.13
2022-12-28T18:12:58.259Z,1.20
2022-12-28T18:15:29.784Z,0.98
2022-12-28T18:17:59.676Z,1.08
2022-12-28T18:20:26.490Z,1.15
2022-12-28T18:22:53.385Z,1.25
2022-12-28T18:25:20.452Z,1.10
2022-12-28T18:27:47.163Z,1.17
2022-12-28T18:30:15.715Z,1.23
2022-12-28T18:32:42.621Z,1.27
2022-12-28T18:35:10.177Z,1.25
2022-12-28T18:37:36.907Z,1.40
2022-12-28T18:40:04.399Z,1.33
2022-12-28T18:42:31.178Z,1.15
2022-12-28T18:44:57.948Z,1.35
2022-12-28T18:47:25.972Z,1.30
2022-12-28T18:49:52.739Z,0.98
2022-12-28T18:52:19.456Z,1.35
2022-12-28T18:54:46.144Z,1.73
2022-12-28T18:57:12.961Z,1.30
2022-12-28T18:59:39.660Z,1.10
2022-12-28T19:02:08.486Z,1.08
2022-12-28T19:04:38.925Z,1.17
2022-12-28T19:07:05.736Z,1.58
2022-12-28T19:09:32.523Z,1.25
2022-12-28T19:11:59.276Z,1.58
2022-12-28T19:14:26.003Z,1.25
2022-12-28T19:16:52.696Z,1.38
2022-12-28T19:19:19.616Z,1.20
2022-12-28T19:21:47.678Z,1.50
2022-12-28T19:24:15.932Z,1.55
2022-12-28T19:26:42.882Z,1.50
2022-12-28T19:29:10.756Z,1.20
2022-12-28T19:31:37.671Z,1.33
2022-12-28T19:34:04.474Z,1.50
2022-12-28T19:36:31.292Z,1.65
2022-12-28T19:38:59.592Z,1.38
2022-12-28T19:41:26.653Z,1.80
2022-12-28T19:43:53.373Z,1.60
2022-12-28T19:46:21.837Z,1.42
2022-12-28T19:48:52.091Z,2.05
2022-12-28T19:51:18.795Z,1.48
2022-12-28T19:53:45.503Z,1.90
2022-12-28T19:56:15.047Z,1.50
2022-12-28T19:58:41.951Z,1.75
2022-12-28T20:01:10.497Z,1.50
2022-12-28T20:03:37.591Z,2.17
2022-12-28T20:06:06.081Z,1.85
2022-12-28T20:08:32.785Z,1.70
2022-12-28T20:10:59.559Z,1.45
2022-12-28T20:13:27.652Z,1.80
2022-12-28T20:15:54.382Z,1.70
2022-12-28T20:18:21.219Z,1.88
2022-12-28T20:21:17.839Z,1.83
2022-12-28T20:23:36.195Z,1.98
2022-12-28T20:26:02.980Z,1.83
2022-12-28T20:28:31.506Z,1.80
2022-12-28T20:31:00.285Z,1.75
2022-12-28T20:33:27.221Z,1.98
2022-12-28T20:35:57.489Z,2.58
2022-12-28T20:38:24.808Z,1.98
2022-12-28T20:41:01.645Z,2.03
2022-12-28T20:43:28.468Z,1.75
2022-12-28T20:45:56.617Z,1.73
2022-12-28T20:48:23.628Z,2.03
2022-12-28T20:50:55.556Z,2.22
2022-12-28T20:53:22.268Z,1.50
2022-12-28T20:55:48.993Z,2.03
2022-12-28T20:58:15.715Z,1.60
2022-12-28T21:00:42.490Z,1.95
2022-12-28T21:03:10.630Z,2.17
2022-12-28T21:05:37.368Z,2.20
2022-12-28T21:08:04.280Z,1.90
2022-12-28T21:10:31.000Z,1.65
2022-12-28T21:12:57.766Z,1.55
2022-12-28T21:15:24.485Z,2.10
2022-12-28T21:17:51.169Z,1.92
2022-12-28T21:20:19.245Z,1.60
2022-12-28T21:22:46.066Z,2.08
2022-12-28T21:25:12.775Z,1.98
2022-12-28T21:27:39.467Z,2.05
2022-12-28T21:30:07.757Z,2.10
2022-12-28T21:32:34.575Z,2.25
2022-12-28T21:35:01.285Z,1.85
2022-12-28T21:37:29.396Z,1.85
2022-12-28T21:39:56.088Z,1.75
2022-12-28T21:42:22.771Z,2.03
2022-12-28T21:44:49.563Z,2.40
2022-12-28T21:47:16.251Z,1.80
2022-12-28T21:49:43.001Z,1.85
2022-12-28T21:52:09.781Z,1.90
2022-12-28T21:54:37.831Z,1.63
2022-12-28T21:57:05.506Z,1.58
2022-12-28T21:59:32.577Z,1.90
2022-12-28T22:01:59.449Z,1.63
2022-12-28T22:04:27.504Z,1.70
2022-12-28T22:06:54.252Z,1.80
2022-12-28T22:09:20.989Z,2.60
2022-12-28T22:11:49.023Z,1.85
2022-12-28T22:14:15.726Z,1.88
2022-12-28T22:16:42.448Z,1.92
2022-12-28T22:19:09.163Z,1.95
2022-12-28T22:21:35.913Z,1.85
2022-12-28T22:24:02.708Z,1.85
2022-12-28T22:26:29.417Z,1.65
2022-12-28T22:28:57.463Z,1.75
2022-12-28T22:31:24.206Z,1.55
2022-12-28T22:33:52.953Z,2.10
2022-12-28T22:36:20.091Z,1.70
2022-12-28T22:38:47.051Z,1.80
2022-12-28T22:41:13.873Z,1.83
2022-12-28T22:43:40.858Z,2.00
2022-12-28T22:46:10.953Z,2.35
2022-12-28T22:48:38.431Z,2.03
2022-12-28T22:51:06.646Z,1.90
2022-12-28T22:53:34.232Z,2.35
2022-12-28T22:56:02.505Z,2.10
2022-12-28T22:58:29.414Z,2.13
2022-12-28T23:01:06.468Z,2.20
2022-12-28T23:03:34.805Z,1.75
2022-12-28T23:06:01.582Z,2.75
2022-12-28T23:08:28.363Z,2.10
2022-12-28T23:10:57.390Z,1.75
2022-12-28T23:13:24.441Z,1.80
2022-12-28T23:15:59.152Z,2.33
2022-12-28T23:18:26.223Z,2.17
2022-12-28T23:20:54.264Z,2.38
2022-12-28T23:23:20.994Z,2.42
2022-12-28T23:25:47.748Z,2.75
2022-12-28T23:28:15.993Z,1.67
2022-12-28T23:30:46.456Z,1.88
2022-12-28T23:33:13.491Z,2.30
2022-12-28T23:35:40.192Z,4.10
2022-12-28T23:38:08.357Z,4.28
2022-12-28T23:40:38.053Z,4.80
2022-12-28T23:43:04.782Z,4.38
2022-12-28T23:45:31.783Z,2.58
2022-12-28T23:47:58.507Z,3.38
2022-12-28T23:50:25.218Z,2.20
2022-12-28T23:52:52.077Z,2.25
2022-12-28T23:55:20.305Z,2.42
2022-12-28T23:57:47.045Z,2.40
